Time;durP1;ratioP1;P1;durP2;ratioP2;P2;SDS_P1;SDS_P2;PMS_P1;PMS_P2;Temp;Humidity;BMP_temperature;BMP_pressure;BME280_temperature;BME280_humidity;BME280_pressure;Samples;Min_cycle;Max_cycle;Signal;HPM_P1;HPM_P2
2021/07/16 00:01:07;;;;;;;15.50;6.22;;;;;;;;;;5076677;28;37523;-78
2021/07/16 00:03:33;;;;;;;13.18;5.93;;;;;;;;;;5071771;28;36924;-78
2021/07/16 00:05:59;;;;;;;13.18;5.63;;;;;;;;;;5075307;28;39472;-78
2021/07/16 00:08:27;;;;;;;14.98;5.38;;;;;;;;;;5074709;28;38916;-78
2021/07/16 00:10:53;;;;;;;15.45;6.03;;;;;;;;;;5068573;28;40555;-78
2021/07/16 00:13:20;;;;;;;14.82;6.50;;;;;;;;;;5070379;28;37913;-78
2021/07/16 00:15:46;;;;;;;12.75;5.57;;;;;;;;;;5070074;28;37806;-78
2021/07/16 00:18:12;;;;;;;18.58;5.97;;;;;;;;;;5069901;28;39966;-79
2021/07/16 00:20:40;;;;;;;14.73;5.13;;;;;;;;;;5072061;28;38440;-79
2021/07/16 00:23:08;;;;;;;11.27;4.90;;;;;;;;;;5075626;28;37413;-78
2021/07/16 00:25:34;;;;;;;12.25;6.20;;;;;;;;;;5090481;28;40381;-79
2021/07/16 00:28:01;;;;;;;13.70;5.20;;;;;;;;;;5087893;28;37036;-79
2021/07/16 00:30:27;;;;;;;17.15;5.97;;;;;;;;;;5085967;28;47062;-78
2021/07/16 00:32:54;;;;;;;17.25;5.57;;;;;;;;;;5089011;28;37003;-78
2021/07/16 00:35:20;;;;;;;17.08;5.05;;;;;;;;;;5084372;28;38913;-78
2021/07/16 00:37:48;;;;;;;11.95;5.20;;;;;;;;;;5083901;28;39391;-79
2021/07/16 00:40:15;;;;;;;16.92;5.00;;;;;;;;;;5076901;27;39015;-79
2021/07/16 00:42:48;;;;;;;15.85;6.03;;;;;;;;;;5083473;28;38089;-79
2021/07/16 00:45:15;;;;;;;15.30;5.50;;;;;;;;;;5082442;28;39261;-79
2021/07/16 00:47:42;;;;;;;15.52;5.57;;;;;;;;;;5087137;28;40141;-78
2021/07/16 00:50:10;;;;;;;15.82;5.22;;;;;;;;;;5081208;28;39669;-78
2021/07/16 00:52:38;;;;;;;16.55;5.65;;;;;;;;;;5085358;28;37352;-79
2021/07/16 00:55:06;;;;;;;17.25;5.63;;;;;;;;;;5080024;28;39120;-78
2021/07/16 00:57:32;;;;;;;14.95;5.55;;;;;;;;;;5077003;28;48358;-76
2021/07/16 01:00:01;;;;;;;16.25;5.30;;;;;;;;;;5078553;28;41025;-79
2021/07/16 01:02:28;;;;;;;15.57;5.40;;;;;;;;;;5075786;28;37509;-79
2021/07/16 01:04:54;;;;;;;15.15;4.78;;;;;;;;;;5083678;28;40135;-79
2021/07/16 01:07:21;;;;;;;14.57;5.35;;;;;;;;;;5088416;28;39022;-79
2021/07/16 01:09:51;;;;;;;15.73;5.18;;;;;;;;;;5087702;28;38652;-79
2021/07/16 01:12:18;;;;;;;12.02;4.93;;;;;;;;;;5086189;28;36711;-79
2021/07/16 01:14:44;;;;;;;14.52;5.32;;;;;;;;;;5077576;28;39167;-78
2021/07/16 01:17:17;;;;;;;14.15;4.80;;;;;;;;;;5080890;27;39187;-79
2021/07/16 01:19:59;;;;;;;17.27;4.70;;;;;;;;;;5083489;28;41937;-79
2021/07/16 01:22:29;;;;;;;18.63;5.35;;;;;;;;;;5080007;28;36804;-79
2021/07/16 01:24:56;;;;;;;14.05;5.55;;;;;;;;;;5075618;28;37912;-78
2021/07/16 01:27:23;;;;;;;18.45;6.03;;;;;;;;;;5078895;28;38845;-79
2021/07/16 01:29:49;;;;;;;14.77;5.57;;;;;;;;;;5078510;28;38299;-78
2021/07/16 01:32:25;;;;;;;12.35;5.53;;;;;;;;;;5081038;28;36977;-79
2021/07/16 01:34:51;;;;;;;15.98;5.43;;;;;;;;;;5135986;22;39038;-79
2021/07/16 01:37:18;;;;;;;11.20;5.22;;;;;;;;;;5065096;27;39449;-79
2021/07/16 01:39:44;;;;;;;14.85;4.43;;;;;;;;;;5067451;28;39511;-79
2021/07/16 01:42:19;;;;;;;13.85;5.25;;;;;;;;;;5073863;27;36852;-79
2021/07/16 01:44:57;;;;;;;12.68;5.10;;;;;;;;;;5078629;28;38562;-79
2021/07/16 01:47:23;;;;;;;13.40;5.03;;;;;;;;;;5065271;28;40633;-79
2021/07/16 01:49:52;;;;;;;12.65;4.97;;;;;;;;;;5075534;28;38113;-80
2021/07/16 01:52:19;;;;;;;13.88;5.45;;;;;;;;;;5093560;22;37201;-79
2021/07/16 01:54:46;;;;;;;12.93;5.43;;;;;;;;;;5075410;28;38619;-79
2021/07/16 01:57:13;;;;;;;11.82;5.43;;;;;;;;;;5073504;28;39299;-79
2021/07/16 01:59:39;;;;;;;16.92;5.35;;;;;;;;;;5080913;28;37466;-79
2021/07/16 02:02:08;;;;;;;15.02;5.25;;;;;;;;;;5084951;28;37214;-79
2021/07/16 02:04:34;;;;;;;12.27;4.93;;;;;;;;;;5076553;28;39730;-79
2021/07/16 02:07:01;;;;;;;14.65;5.10;;;;;;;;;;5080507;27;39229;-79
2021/07/16 02:09:28;;;;;;;11.75;5.00;;;;;;;;;;5076013;28;47923;-78
2021/07/16 02:11:57;;;;;;;16.17;4.75;;;;;;;;;;5083396;28;35641;-78
2021/07/16 02:14:25;;;;;;;14.45;4.65;;;;;;;;;;5076988;28;38406;-78
2021/07/16 02:16:51;;;;;;;12.85;4.90;;;;;;;;;;5075416;28;39192;-78
2021/07/16 02:19:18;;;;;;;11.77;4.45;;;;;;;;;;5072261;28;40480;-77
2021/07/16 02:21:44;;;;;;;17.63;4.45;;;;;;;;;;5077873;28;37847;-78
2021/07/16 02:24:18;;;;;;;14.93;4.72;;;;;;;;;;5063437;28;40386;-78
2021/07/16 02:26:46;;;;;;;13.07;4.22;;;;;;;;;;5077642;28;39298;-78
2021/07/16 02:29:12;;;;;;;13.98;4.47;;;;;;;;;;5072517;28;39325;-79
2021/07/16 02:31:39;;;;;;;10.27;4.05;;;;;;;;;;5077076;28;37877;-78
2021/07/16 02:34:05;;;;;;;13.60;4.38;;;;;;;;;;5075239;28;39214;-78
2021/07/16 02:36:32;;;;;;;9.13;3.83;;;;;;;;;;5071293;28;40828;-78
2021/07/16 02:39:01;;;;;;;13.48;4.18;;;;;;;;;;5074043;28;36902;-78
2021/07/16 02:41:28;;;;;;;12.45;4.65;;;;;;;;;;5071748;28;48890;-79
2021/07/16 02:43:54;;;;;;;12.55;4.43;;;;;;;;;;5074254;28;39300;-77
2021/07/16 02:46:21;;;;;;;14.63;3.90;;;;;;;;;;5079157;28;39171;-78
2021/07/16 02:48:57;;;;;;;16.08;4.07;;;;;;;;;;5073651;28;38297;-78
2021/07/16 02:51:23;;;;;;;9.23;3.50;;;;;;;;;;5077455;28;35765;-78
2021/07/16 02:53:56;;;;;;;11.10;3.38;;;;;;;;;;5080270;28;37520;-78
2021/07/16 02:56:23;;;;;;;14.00;3.80;;;;;;;;;;5081908;28;39000;-78
2021/07/16 02:58:58;;;;;;;13.25;3.65;;;;;;;;;;5082737;28;41542;-78
2021/07/16 03:01:24;;;;;;;16.00;4.20;;;;;;;;;;5066334;28;36881;-77
2021/07/16 03:03:50;;;;;;;11.68;3.55;;;;;;;;;;5075127;28;37475;-78
2021/07/16 03:06:17;;;;;;;13.90;3.70;;;;;;;;;;5067202;28;38693;-78
2021/07/16 03:08:46;;;;;;;11.65;3.58;;;;;;;;;;5094540;28;39187;-78
2021/07/16 03:11:13;;;;;;;13.50;3.90;;;;;;;;;;5073368;28;36699;-78
2021/07/16 03:13:39;;;;;;;17.25;4.15;;;;;;;;;;5078207;28;37415;-77
2021/07/16 03:16:06;;;;;;;19.13;3.80;;;;;;;;;;5069892;28;40391;-78
2021/07/16 03:18:49;;;;;;;18.05;3.80;;;;;;;;;;5078508;28;37242;-78
2021/07/16 03:21:16;;;;;;;11.23;3.85;;;;;;;;;;5075493;28;36889;-78
2021/07/16 03:23:42;;;;;;;15.90;3.58;;;;;;;;;;5078175;28;37863;-77
2021/07/16 03:26:09;;;;;;;13.95;3.75;;;;;;;;;;5070449;28;39583;-77
2021/07/16 03:28:38;;;;;;;10.82;3.33;;;;;;;;;;5068004;28;36651;-78
2021/07/16 03:31:05;;;;;;;16.38;4.05;;;;;;;;;;5072233;27;37192;-77
2021/07/16 03:33:31;;;;;;;16.52;3.70;;;;;;;;;;5067047;28;38546;-78
2021/07/16 03:35:58;;;;;;;14.50;3.80;;;;;;;;;;5068806;28;38949;-78
2021/07/16 03:38:24;;;;;;;11.95;3.47;;;;;;;;;;5075733;28;39480;-78
2021/07/16 03:40:55;;;;;;;9.88;3.05;;;;;;;;;;5076577;28;37009;-78
2021/07/16 03:43:21;;;;;;;11.93;3.22;;;;;;;;;;5080496;28;38787;-78
2021/07/16 03:45:50;;;;;;;16.75;4.38;;;;;;;;;;5076016;28;39032;-78
2021/07/16 03:48:16;;;;;;;14.82;3.63;;;;;;;;;;5076877;28;37821;-78
2021/07/16 03:50:43;;;;;;;13.30;3.30;;;;;;;;;;5082856;28;37039;-78
2021/07/16 03:53:10;;;;;;;17.23;3.50;;;;;;;;;;5082061;28;36706;-78
2021/07/16 03:55:37;;;;;;;10.27;2.92;;;;;;;;;;5081112;28;40333;-79
2021/07/16 03:58:05;;;;;;;12.73;3.38;;;;;;;;;;5079303;28;38656;-79
2021/07/16 04:00:31;;;;;;;10.80;3.15;;;;;;;;;;5081712;28;36018;-78
2021/07/16 04:02:59;;;;;;;10.75;3.50;;;;;;;;;;5078629;28;37560;-79
2021/07/16 04:05:30;;;;;;;13.73;3.78;;;;;;;;;;5066796;28;37330;-79
2021/07/16 04:08:04;;;;;;;10.40;3.55;;;;;;;;;;5093654;28;39059;-79
2021/07/16 04:10:31;;;;;;;15.20;4.30;;;;;;;;;;5075747;28;50215;-78
2021/07/16 04:12:58;;;;;;;12.25;3.70;;;;;;;;;;5073704;28;37620;-78
2021/07/16 04:15:31;;;;;;;15.02;4.22;;;;;;;;;;5073698;28;39479;-78
2021/07/16 04:17:59;;;;;;;13.90;3.58;;;;;;;;;;5063565;28;40159;-78
2021/07/16 04:20:26;;;;;;;11.48;3.95;;;;;;;;;;5072899;28;35914;-79
2021/07/16 04:22:53;;;;;;;14.27;3.28;;;;;;;;;;5076056;28;40286;-78
2021/07/16 04:25:20;;;;;;;14.55;3.38;;;;;;;;;;5074966;28;38825;-79
2021/07/16 04:27:49;;;;;;;13.30;3.10;;;;;;;;;;5082135;28;38923;-78
2021/07/16 04:30:17;;;;;;;17.92;4.20;;;;;;;;;;5077429;28;36557;-79
2021/07/16 04:32:46;;;;;;;14.68;3.63;;;;;;;;;;5078997;28;38524;-79
2021/07/16 04:35:14;;;;;;;14.52;3.65;;;;;;;;;;5068195;28;40111;-79
2021/07/16 04:37:41;;;;;;;14.13;3.60;;;;;;;;;;5077525;28;39420;-79
2021/07/16 04:40:23;;;;;;;19.33;3.80;;;;;;;;;;5063793;28;36556;-79
2021/07/16 04:42:51;;;;;;;16.23;3.83;;;;;;;;;;5077985;28;38938;-79
2021/07/16 04:45:21;;;;;;;22.90;4.20;;;;;;;;;;5074491;28;39559;-79
2021/07/16 04:47:48;;;;;;;15.25;4.13;;;;;;;;;;5075480;28;37701;-79
2021/07/16 04:50:15;;;;;;;14.50;3.60;;;;;;;;;;5079413;27;36807;-79
2021/07/16 04:52:43;;;;;;;11.63;3.15;;;;;;;;;;5083915;28;37385;-78
2021/07/16 04:55:10;;;;;;;14.02;3.20;;;;;;;;;;5077651;28;38075;-78
2021/07/16 04:57:45;;;;;;;14.27;3.05;;;;;;;;;;5083220;28;38108;-78
2021/07/16 05:00:12;;;;;;;15.98;3.83;;;;;;;;;;5070969;27;36921;-78
2021/07/16 05:02:46;;;;;;;13.93;2.80;;;;;;;;;;5086768;28;38979;-78
2021/07/16 05:05:25;;;;;;;17.20;3.60;;;;;;;;;;5080174;28;39407;-79
2021/07/16 05:08:12;;;;;;;13.32;3.17;;;;;;;;;;5071438;28;38031;-80
2021/07/16 05:13:08;;;;;;;12.32;3.15;;;;;;;;;;5058139;28;20033;-79
2021/07/16 05:15:35;;;;;;;14.63;3.10;;;;;;;;;;5067119;28;38131;-79
2021/07/16 05:18:01;;;;;;;14.23;3.67;;;;;;;;;;5166411;22;38863;-80
2021/07/16 05:20:27;;;;;;;16.17;3.15;;;;;;;;;;5096233;28;49905;-80
2021/07/16 05:22:57;;;;;;;12.95;3.50;;;;;;;;;;5091192;28;39026;-79
2021/07/16 05:25:29;;;;;;;16.88;3.33;;;;;;;;;;5268291;22;39035;-77
2021/07/16 05:28:16;;;;;;;12.05;3.00;;;;;;;;;;5086092;28;38662;-78
2021/07/16 05:30:43;;;;;;;16.10;3.28;;;;;;;;;;5083104;28;48693;-78
2021/07/16 05:33:09;;;;;;;19.48;3.60;;;;;;;;;;5069141;28;38181;-78
2021/07/16 05:35:36;;;;;;;16.52;3.60;;;;;;;;;;5072777;28;37968;-78
2021/07/16 05:38:02;;;;;;;14.88;3.42;;;;;;;;;;5079045;28;37639;-79
2021/07/16 05:40:29;;;;;;;22.02;4.28;;;;;;;;;;5080394;28;36344;-78
2021/07/16 05:42:55;;;;;;;17.80;3.75;;;;;;;;;;5081015;28;39191;-79
2021/07/16 05:45:22;;;;;;;13.57;2.97;;;;;;;;;;5077773;28;39614;-78
2021/07/16 05:47:48;;;;;;;17.08;3.00;;;;;;;;;;5080330;28;37165;-78
2021/07/16 05:50:15;;;;;;;18.70;3.85;;;;;;;;;;5076696;28;35655;-79
2021/07/16 05:52:44;;;;;;;16.52;3.53;;;;;;;;;;5070856;28;41332;-79
2021/07/16 05:55:11;;;;;;;21.65;4.65;;;;;;;;;;5155548;22;40421;-79
2021/07/16 05:57:38;;;;;;;16.65;3.20;;;;;;;;;;5050695;28;38857;-80
2021/07/16 06:00:06;;;;;;;11.75;3.30;;;;;;;;;;5057161;28;37336;-80
2021/07/16 06:02:35;;;;;;;21.88;4.13;;;;;;;;;;5109453;22;47686;-80
2021/07/16 06:08:06;;;;;;;12.50;3.17;;;;;;;;;;5088287;28;50012;-80
2021/07/16 06:10:50;;;;;;;14.30;3.03;;;;;;;;;;5086739;28;37110;-79
2021/07/16 06:13:24;;;;;;;15.18;3.15;;;;;;;;;;5091199;28;38826;-79
2021/07/16 06:15:53;;;;;;;16.80;4.28;;;;;;;;;;5085803;28;39080;-80
2021/07/16 06:18:22;;;;;;;13.45;2.90;;;;;;;;;;5146061;22;38606;-80
2021/07/16 06:20:51;;;;;;;13.50;2.72;;;;;;;;;;5081152;28;36287;-80
2021/07/16 06:23:18;;;;;;;12.50;2.80;;;;;;;;;;5080206;28;39014;-80
2021/07/16 06:25:44;;;;;;;16.23;3.58;;;;;;;;;;5078830;28;38363;-79
2021/07/16 06:28:11;;;;;;;14.05;2.58;;;;;;;;;;5077382;28;39424;-80
2021/07/16 06:30:40;;;;;;;19.30;3.60;;;;;;;;;;5079474;28;38516;-79
2021/07/16 06:33:07;;;;;;;15.25;3.40;;;;;;;;;;5086731;22;40195;-80
2021/07/16 06:35:33;;;;;;;14.02;3.10;;;;;;;;;;5058234;28;40297;-80
2021/07/16 06:38:02;;;;;;;16.70;3.47;;;;;;;;;;5055534;28;39189;-80
2021/07/16 06:40:30;;;;;;;16.40;3.67;;;;;;;;;;5066696;28;48151;-80
2021/07/16 06:42:57;;;;;;;12.30;2.80;;;;;;;;;;5075888;28;39550;-79
2021/07/16 06:45:24;;;;;;;14.82;3.22;;;;;;;;;;5046751;28;37757;-80
2021/07/16 06:48:01;;;;;;;16.45;3.25;;;;;;;;;;5079983;28;37969;-79
2021/07/16 06:50:29;;;;;;;9.02;3.10;;;;;;;;;;5051597;28;50230;-80
2021/07/16 06:52:57;;;;;;;11.43;2.85;;;;;;;;;;5062414;28;38580;-79
2021/07/16 06:55:23;;;;;;;14.02;2.90;;;;;;;;;;5048260;28;39812;-80
2021/07/16 06:57:49;;;;;;;13.80;2.80;;;;;;;;;;5042854;28;39395;-80
2021/07/16 07:00:17;;;;;;;14.27;3.50;;;;;;;;;;5058241;28;38300;-81
2021/07/16 07:02:43;;;;;;;14.75;3.00;;;;;;;;;;5072411;28;38889;-80
2021/07/16 07:05:11;;;;;;;11.70;2.85;;;;;;;;;;5056566;28;39285;-80
2021/07/16 07:07:37;;;;;;;12.43;2.90;;;;;;;;;;5056256;28;37495;-80
2021/07/16 07:10:04;;;;;;;13.55;3.15;;;;;;;;;;5072010;22;38715;-80
2021/07/16 07:12:30;;;;;;;13.32;2.90;;;;;;;;;;5061049;28;47084;-79
2021/07/16 07:14:57;;;;;;;9.63;2.53;;;;;;;;;;5068070;28;38709;-80
2021/07/16 07:17:23;;;;;;;11.80;3.17;;;;;;;;;;5063604;28;37109;-79
2021/07/16 07:19:50;;;;;;;17.80;3.15;;;;;;;;;;5066233;28;36834;-79
2021/07/16 07:22:16;;;;;;;12.90;3.45;;;;;;;;;;5070309;28;38665;-80
2021/07/16 07:24:42;;;;;;;12.63;3.25;;;;;;;;;;5066896;28;38139;-79
2021/07/16 07:27:09;;;;;;;18.20;3.30;;;;;;;;;;5072246;28;37472;-79
2021/07/16 07:29:35;;;;;;;15.25;2.83;;;;;;;;;;5069692;28;35615;-80
2021/07/16 07:32:03;;;;;;;13.98;2.75;;;;;;;;;;5069465;28;38256;-79
2021/07/16 07:34:29;;;;;;;17.70;3.15;;;;;;;;;;5069417;28;39213;-78
2021/07/16 07:36:55;;;;;;;12.43;3.47;;;;;;;;;;5073884;28;38291;-79
2021/07/16 07:39:22;;;;;;;12.93;2.78;;;;;;;;;;5068913;28;37074;-80
2021/07/16 07:41:48;;;;;;;15.70;3.55;;;;;;;;;;5066440;28;37803;-79
2021/07/16 07:44:16;;;;;;;15.65;3.40;;;;;;;;;;5065599;28;38080;-80
2021/07/16 07:46:42;;;;;;;18.38;3.63;;;;;;;;;;5070275;28;37522;-80
2021/07/16 07:49:11;;;;;;;14.18;3.35;;;;;;;;;;5061828;28;36864;-80
2021/07/16 07:51:38;;;;;;;10.45;3.17;;;;;;;;;;5055995;28;38904;-79
2021/07/16 07:54:07;;;;;;;14.15;2.85;;;;;;;;;;5062775;28;39184;-80
2021/07/16 07:56:33;;;;;;;15.80;3.90;;;;;;;;;;5080867;28;38854;-80
2021/07/16 07:59:00;;;;;;;14.48;3.67;;;;;;;;;;5069385;28;36454;-81
2021/07/16 08:01:26;;;;;;;15.88;3.40;;;;;;;;;;5060938;28;37791;-79
2021/07/16 08:03:53;;;;;;;16.27;3.30;;;;;;;;;;5066340;28;39863;-79
2021/07/16 08:06:19;;;;;;;11.52;2.90;;;;;;;;;;5074258;27;38618;-80
2021/07/16 08:08:46;;;;;;;13.25;3.05;;;;;;;;;;5067606;28;37036;-79
2021/07/16 08:11:13;;;;;;;13.30;3.45;;;;;;;;;;5067929;28;39153;-80
2021/07/16 08:13:42;;;;;;;18.58;3.63;;;;;;;;;;5085625;28;37933;-80
2021/07/16 08:16:08;;;;;;;15.77;3.33;;;;;;;;;;5071965;28;38242;-80
2021/07/16 08:18:35;;;;;;;14.63;3.30;;;;;;;;;;5069331;28;37146;-80
2021/07/16 08:21:01;;;;;;;17.92;3.10;;;;;;;;;;5067697;28;38979;-80
2021/07/16 08:23:28;;;;;;;16.95;3.38;;;;;;;;;;5061598;28;47054;-79
2021/07/16 08:25:54;;;;;;;15.77;3.58;;;;;;;;;;5062318;28;39817;-80
2021/07/16 08:28:20;;;;;;;16.02;3.28;;;;;;;;;;5061965;28;36844;-79
2021/07/16 08:30:47;;;;;;;17.77;3.65;;;;;;;;;;5069861;27;40014;-81
2021/07/16 08:33:13;;;;;;;14.18;3.78;;;;;;;;;;5077828;28;39969;-81
2021/07/16 08:35:40;;;;;;;18.30;3.97;;;;;;;;;;5079437;28;37167;-80
2021/07/16 08:38:08;;;;;;;17.77;4.03;;;;;;;;;;5070058;28;36716;-80
2021/07/16 08:40:34;;;;;;;13.73;3.20;;;;;;;;;;5079063;28;37924;-81
2021/07/16 08:43:01;;;;;;;23.15;4.65;;;;;;;;;;5079594;28;39275;-80
2021/07/16 08:45:28;;;;;;;17.77;4.05;;;;;;;;;;5074993;28;48529;-80
2021/07/16 08:47:54;;;;;;;18.08;3.88;;;;;;;;;;5072020;28;37706;-81
2021/07/16 08:50:23;;;;;;;17.73;4.13;;;;;;;;;;5083787;28;39144;-80
2021/07/16 08:52:50;;;;;;;16.60;3.72;;;;;;;;;;5076792;28;37921;-81
2021/07/16 08:55:19;;;;;;;17.05;3.78;;;;;;;;;;5082541;28;39241;-80
2021/07/16 08:57:59;;;;;;;17.55;3.83;;;;;;;;;;5073462;28;36264;-82
2021/07/16 09:00:25;;;;;;;16.17;4.13;;;;;;;;;;5074794;28;40152;-81
2021/07/16 09:08:18;;;;;;;11.57;3.63;;;;;;;;;;5720341;22;20064;-80
2021/07/16 09:10:49;;;;;;;16.27;3.95;;;;;;;;;;5084616;28;40128;-82
2021/07/16 09:13:31;;;;;;;16.08;3.47;;;;;;;;;;5079340;28;37707;-82
2021/07/16 09:16:02;;;;;;;11.73;3.85;;;;;;;;;;5108414;28;39703;-82
2021/07/16 09:18:53;;;;;;;25.90;4.47;;;;;;;;;;5097115;28;47969;-82
2021/07/16 09:21:36;;;;;;;13.63;3.25;;;;;;;;;;5084764;28;39666;-80
2021/07/16 09:24:30;;;;;;;19.55;4.15;;;;;;;;;;5088982;28;39084;-82
2021/07/16 09:27:25;;;;;;;17.77;4.15;;;;;;;;;;5094092;28;39116;-81
2021/07/16 09:30:10;;;;;;;17.92;3.85;;;;;;;;;;5091955;28;48421;-81
2021/07/16 09:32:48;;;;;;;17.38;4.07;;;;;;;;;;5088168;28;48489;-82
2021/07/16 09:38:17;;;;;;;18.33;3.58;;;;;;;;;;5438617;22;20037;-81
2021/07/16 09:40:50;;;;;;;15.60;3.20;;;;;;;;;;5095901;28;48131;-80
2021/07/16 09:46:06;;;;;;;11.40;3.70;;;;;;;;;;5988580;22;20059;-79
2021/07/16 09:48:41;;;;;;;14.88;3.25;;;;;;;;;;5074774;28;50103;-81
2021/07/16 09:51:21;;;;;;;21.98;4.03;;;;;;;;;;5075798;28;37507;-81
2021/07/16 09:53:51;;;;;;;12.93;3.55;;;;;;;;;;5080065;28;38258;-80
2021/07/16 09:56:28;;;;;;;12.35;3.00;;;;;;;;;;5082335;28;38784;-80
2021/07/16 09:59:18;;;;;;;17.27;4.13;;;;;;;;;;5072386;28;38384;-81
2021/07/16 10:04:21;;;;;;;12.32;3.50;;;;;;;;;;5432492;22;20545;-80
2021/07/16 10:06:56;;;;;;;18.27;4.15;;;;;;;;;;5089148;28;39812;-80
2021/07/16 10:09:30;;;;;;;15.50;3.78;;;;;;;;;;5072517;28;38367;-81
2021/07/16 10:11:58;;;;;;;12.90;3.20;;;;;;;;;;5066580;28;37365;-81
2021/07/16 10:14:27;;;;;;;14.40;3.60;;;;;;;;;;5079573;28;38557;-80
2021/07/16 10:17:21;;;;;;;12.00;3.85;;;;;;;;;;5089150;28;39000;-80
2021/07/16 10:19:50;;;;;;;14.10;3.63;;;;;;;;;;5061644;28;48448;-80
2021/07/16 10:22:18;;;;;;;17.63;4.30;;;;;;;;;;5087670;28;38028;-79
2021/07/16 10:24:46;;;;;;;15.88;4.07;;;;;;;;;;5087552;28;39963;-80
2021/07/16 10:27:13;;;;;;;14.02;3.22;;;;;;;;;;5089201;28;39520;-79
2021/07/16 10:30:05;;;;;;;12.60;3.92;;;;;;;;;;5091094;28;39699;-80
2021/07/16 10:32:54;;;;;;;13.52;3.90;;;;;;;;;;5094488;28;48464;-80
2021/07/16 10:35:31;;;;;;;12.63;3.60;;;;;;;;;;5086999;28;40420;-79
2021/07/16 10:37:59;;;;;;;14.07;4.00;;;;;;;;;;5082419;28;38879;-81
2021/07/16 10:40:50;;;;;;;12.25;3.50;;;;;;;;;;5078033;28;38986;-80
2021/07/16 10:43:23;;;;;;;14.88;3.53;;;;;;;;;;5083808;28;38611;-80
2021/07/16 10:45:50;;;;;;;14.15;3.53;;;;;;;;;;5097628;28;38692;-80
2021/07/16 10:50:53;;;;;;;21.15;4.35;;;;;;;;;;6085782;22;20252;-80
2021/07/16 10:53:29;;;;;;;14.85;4.20;;;;;;;;;;5090906;28;36561;-79
2021/07/16 10:55:58;;;;;;;13.05;4.00;;;;;;;;;;5104280;28;40539;-79
2021/07/16 10:58:32;;;;;;;11.88;3.53;;;;;;;;;;5095786;28;40630;-79
2021/07/16 11:01:02;;;;;;;12.13;3.50;;;;;;;;;;5090298;28;39860;-80
2021/07/16 11:03:40;;;;;;;13.95;3.67;;;;;;;;;;5094830;28;47978;-79
2021/07/16 11:06:13;;;;;;;13.82;3.70;;;;;;;;;;5089575;28;38734;-80
2021/07/16 11:08:40;;;;;;;12.20;3.95;;;;;;;;;;5090678;28;38872;-80
2021/07/16 11:11:22;;;;;;;14.45;3.92;;;;;;;;;;5094205;28;39902;-80
2021/07/16 11:13:48;;;;;;;;;;;;;;;;;;5093537;28;38408;-77
2021/07/16 11:16:31;;;;;;;13.90;3.55;;;;;;;;;;5069803;28;40058;-77
2021/07/16 11:19:17;;;;;;;16.60;3.95;;;;;;;;;;5068249;28;39036;-76
2021/07/16 11:21:47;;;;;;;18.08;3.65;;;;;;;;;;5076362;28;49144;-77
2021/07/16 11:24:19;;;;;;;11.85;3.80;;;;;;;;;;5077892;28;37138;-77
2021/07/16 11:26:47;;;;;;;13.75;4.00;;;;;;;;;;5069555;28;39262;-77
2021/07/16 11:29:15;;;;;;;11.55;3.30;;;;;;;;;;5063588;28;20069;-76
2021/07/16 11:31:42;;;;;;;15.27;3.83;;;;;;;;;;5067773;28;37119;-77
2021/07/16 11:34:15;;;;;;;14.27;3.95;;;;;;;;;;5079229;28;36981;-78
2021/07/16 11:36:48;;;;;;;13.98;4.18;;;;;;;;;;5078707;28;37646;-77
2021/07/16 11:39:31;;;;;;;11.20;3.67;;;;;;;;;;5073069;28;39177;-77
2021/07/16 11:41:59;;;;;;;15.60;4.15;;;;;;;;;;5075211;28;39848;-77
2021/07/16 11:44:47;;;;;;;19.00;4.82;;;;;;;;;;5077709;28;37660;-78
2021/07/16 11:47:32;;;;;;;16.90;4.35;;;;;;;;;;5079593;28;38966;-77
2021/07/16 11:50:00;;;;;;;14.85;4.15;;;;;;;;;;5071237;28;37629;-77
2021/07/16 11:52:31;;;;;;;15.35;4.03;;;;;;;;;;5071715;28;38586;-78
2021/07/16 11:55:07;;;;;;;11.25;3.88;;;;;;;;;;5079018;28;36571;-78
2021/07/16 11:57:33;;;;;;;18.05;3.95;;;;;;;;;;5070787;28;47127;-78
2021/07/16 12:00:00;;;;;;;16.80;4.20;;;;;;;;;;5079081;28;39211;-78
2021/07/16 12:02:27;;;;;;;13.82;3.78;;;;;;;;;;5080495;28;39130;-78
2021/07/16 12:04:58;;;;;;;15.80;4.07;;;;;;;;;;5073650;28;37325;-79
2021/07/16 12:07:25;;;;;;;19.10;4.22;;;;;;;;;;5073892;28;38390;-78
2021/07/16 12:09:51;;;;;;;14.32;4.53;;;;;;;;;;5072738;28;39085;-78
2021/07/16 12:12:21;;;;;;;16.88;4.75;;;;;;;;;;5073511;28;38956;-79
2021/07/16 12:14:55;;;;;;;15.55;4.60;;;;;;;;;;5085515;28;37000;-78
2021/07/16 12:17:29;;;;;;;15.15;4.15;;;;;;;;;;5085380;27;38885;-78
2021/07/16 12:19:56;;;;;;;16.35;4.15;;;;;;;;;;5072806;28;39325;-78
2021/07/16 12:22:24;;;;;;;12.32;3.90;;;;;;;;;;5081466;28;38552;-78
2021/07/16 12:24:51;;;;;;;18.02;4.40;;;;;;;;;;5079215;28;36685;-78
2021/07/16 12:27:18;;;;;;;15.20;4.57;;;;;;;;;;5082025;28;41894;-79
2021/07/16 12:29:45;;;;;;;14.02;4.40;;;;;;;;;;5091942;28;38977;-79
2021/07/16 12:32:12;;;;;;;14.13;4.00;;;;;;;;;;5077693;28;39232;-78
2021/07/16 12:34:46;;;;;;;14.43;4.45;;;;;;;;;;5096151;28;36313;-79
2021/07/16 12:37:13;;;;;;;14.82;4.43;;;;;;;;;;5444999;22;38494;-78
2021/07/16 12:39:41;;;;;;;16.40;4.35;;;;;;;;;;5089337;28;39036;-79
2021/07/16 12:42:19;;;;;;;15.00;4.13;;;;;;;;;;5086089;28;38928;-78
2021/07/16 12:45:05;;;;;;;15.35;4.47;;;;;;;;;;5084088;28;36728;-78
2021/07/16 12:47:32;;;;;;;14.88;4.45;;;;;;;;;;5079281;28;47381;-79
2021/07/16 12:50:06;;;;;;;14.43;4.05;;;;;;;;;;5072868;28;36365;-78
2021/07/16 12:52:35;;;;;;;12.75;4.03;;;;;;;;;;5074854;28;48702;-78
2021/07/16 12:55:14;;;;;;;16.27;3.75;;;;;;;;;;5083038;28;37769;-79
2021/07/16 12:57:40;;;;;;;12.20;4.15;;;;;;;;;;5090459;28;48408;-80
2021/07/16 13:00:19;;;;;;;15.30;4.20;;;;;;;;;;5068994;28;39922;-78
2021/07/16 13:02:50;;;;;;;13.38;3.75;;;;;;;;;;5082572;28;50020;-79
2021/07/16 13:05:32;;;;;;;14.70;4.38;;;;;;;;;;5071344;28;35472;-79
2021/07/16 13:08:14;;;;;;;15.55;4.18;;;;;;;;;;5071740;28;39767;-79
2021/07/16 13:10:50;;;;;;;20.15;4.68;;;;;;;;;;5078058;28;49191;-80
2021/07/16 13:13:36;;;;;;;15.00;4.43;;;;;;;;;;5082807;28;39167;-79
2021/07/16 13:16:22;;;;;;;18.13;4.35;;;;;;;;;;5076224;28;37696;-78
2021/07/16 13:18:50;;;;;;;15.75;4.13;;;;;;;;;;5084515;28;39494;-79
2021/07/16 13:21:18;;;;;;;21.60;4.80;;;;;;;;;;5061682;28;38758;-78
2021/07/16 13:23:45;;;;;;;14.10;4.18;;;;;;;;;;5070514;28;37668;-78
2021/07/16 13:26:14;;;;;;;18.88;5.30;;;;;;;;;;5061611;28;35838;-77
2021/07/16 13:28:41;;;;;;;11.57;4.05;;;;;;;;;;5063434;28;39773;-79
2021/07/16 13:31:08;;;;;;;17.20;4.47;;;;;;;;;;5079981;28;37756;-78
2021/07/16 13:33:34;;;;;;;15.63;3.88;;;;;;;;;;5091894;28;39735;-79
2021/07/16 13:36:04;;;;;;;13.35;4.60;;;;;;;;;;5086334;28;36032;-79
2021/07/16 13:38:32;;;;;;;14.45;4.45;;;;;;;;;;5072750;28;49046;-79
2021/07/16 13:41:02;;;;;;;20.55;4.47;;;;;;;;;;5080235;27;40699;-79
2021/07/16 13:43:28;;;;;;;13.10;4.10;;;;;;;;;;5075446;28;48417;-79
2021/07/16 13:45:55;;;;;;;13.05;4.20;;;;;;;;;;5080790;28;36719;-79
2021/07/16 13:48:21;;;;;;;12.82;4.30;;;;;;;;;;5080662;28;38821;-80
2021/07/16 13:50:48;;;;;;;16.05;4.38;;;;;;;;;;5086386;28;41594;-79
2021/07/16 13:53:14;;;;;;;16.55;3.85;;;;;;;;;;5094118;28;39239;-78
2021/07/16 13:55:41;;;;;;;14.70;3.85;;;;;;;;;;5088684;28;36433;-80
2021/07/16 13:58:07;;;;;;;15.82;4.47;;;;;;;;;;5061770;28;38607;-77
2021/07/16 14:00:34;;;;;;;14.63;4.30;;;;;;;;;;5082381;28;39001;-78
2021/07/16 14:03:00;;;;;;;14.82;4.35;;;;;;;;;;5077630;28;39930;-78
2021/07/16 14:05:27;;;;;;;13.65;3.90;;;;;;;;;;5066071;28;38540;-77
2021/07/16 14:07:53;;;;;;;16.40;4.38;;;;;;;;;;5060413;28;38798;-77
2021/07/16 14:10:21;;;;;;;19.85;5.03;;;;;;;;;;5061994;28;38793;-77
2021/07/16 14:12:48;;;;;;;19.75;4.30;;;;;;;;;;5066281;28;39368;-76
2021/07/16 14:15:15;;;;;;;12.40;3.85;;;;;;;;;;5057628;28;36004;-76
2021/07/16 14:17:41;;;;;;;15.63;4.43;;;;;;;;;;5058474;28;37618;-76
2021/07/16 14:20:09;;;;;;;13.63;3.72;;;;;;;;;;5076575;28;39394;-77
2021/07/16 14:22:38;;;;;;;17.13;4.60;;;;;;;;;;5061600;28;38752;-76
2021/07/16 14:25:05;;;;;;;15.00;4.13;;;;;;;;;;5063129;28;37799;-77
2021/07/16 14:27:32;;;;;;;12.50;3.83;;;;;;;;;;5050514;28;47014;-77
2021/07/16 14:29:59;;;;;;;14.27;4.03;;;;;;;;;;5061871;28;39318;-79
2021/07/16 14:32:27;;;;;;;13.15;4.30;;;;;;;;;;5067330;28;40072;-76
2021/07/16 14:34:54;;;;;;;18.80;4.75;;;;;;;;;;5062817;28;36946;-77
2021/07/16 14:37:21;;;;;;;13.90;4.25;;;;;;;;;;5071289;28;40018;-76
2021/07/16 14:39:50;;;;;;;15.50;4.50;;;;;;;;;;5070918;28;39101;-76
2021/07/16 14:42:18;;;;;;;15.52;4.50;;;;;;;;;;5088791;28;40399;-78
2021/07/16 14:44:45;;;;;;;20.08;4.30;;;;;;;;;;5088959;28;36911;-78
2021/07/16 14:47:13;;;;;;;15.05;4.45;;;;;;;;;;5089142;28;38164;-78
2021/07/16 14:49:40;;;;;;;16.80;4.57;;;;;;;;;;5087066;28;38023;-78
2021/07/16 14:52:06;;;;;;;12.23;4.25;;;;;;;;;;5087543;28;37643;-78
2021/07/16 14:54:33;;;;;;;16.80;4.70;;;;;;;;;;5079308;28;37039;-78
2021/07/16 14:57:00;;;;;;;15.65;4.35;;;;;;;;;;5088320;28;39621;-79
2021/07/16 14:59:26;;;;;;;15.43;4.97;;;;;;;;;;5085676;28;39946;-78
2021/07/16 15:01:53;;;;;;;18.20;5.43;;;;;;;;;;5088257;28;38400;-80
2021/07/16 15:04:22;;;;;;;12.20;4.22;;;;;;;;;;5091462;28;37042;-78
2021/07/16 15:06:48;;;;;;;15.98;4.63;;;;;;;;;;5087900;28;39153;-78